Time;durP1;ratioP1;P1;durP2;ratioP2;P2;SDS_P1;SDS_P2;PMS_P1;PMS_P2;Temp;Humidity;BMP_temperature;BMP_pressure;BME280_temperature;BME280_humidity;BME280_pressure;Samples;Min_cycle;Max_cycle;Signal;HPM_P1;HPM_P2
2021/06/21 00:01:37;;;;;;;15.17;14.60;;;21.00;99.90;;;;;;4972337;28;21004;-69
2021/06/21 00:04:04;;;;;;;15.53;14.83;;;21.00;99.90;;;;;;4975175;28;20471;-69
2021/06/21 00:06:31;;;;;;;14.87;14.23;;;21.00;99.90;;;;;;4975885;28;20450;-68
2021/06/21 00:08:58;;;;;;;17.00;16.13;;;20.90;99.90;;;;;;4975920;28;20443;-70
2021/06/21 00:11:26;;;;;;;14.97;14.37;;;20.80;99.90;;;;;;4975647;28;20475;-69
2021/06/21 00:13:52;;;;;;;14.40;13.70;;;20.80;99.90;;;;;;4975519;28;20463;-68
2021/06/21 00:16:19;;;;;;;14.43;13.70;;;20.80;99.90;;;;;;4975645;28;20455;-68
2021/06/21 00:18:46;;;;;;;15.07;14.23;;;20.80;99.90;;;;;;4975689;28;20811;-69
2021/06/21 00:21:13;;;;;;;14.30;13.70;;;20.80;99.90;;;;;;4975601;28;20444;-68
2021/06/21 00:23:40;;;;;;;15.43;14.83;;;20.70;99.90;;;;;;4975313;28;20857;-67
2021/06/21 00:26:06;;;;;;;15.90;15.10;;;20.70;99.90;;;;;;4975407;28;20462;-69
2021/06/21 00:28:35;;;;;;;15.33;14.63;;;20.60;99.90;;;;;;4975666;28;20451;-69
2021/06/21 00:31:01;;;;;;;15.43;14.73;;;20.60;99.90;;;;;;4975315;28;20490;-69
2021/06/21 00:33:28;;;;;;;15.67;14.80;;;20.50;99.90;;;;;;4975299;28;20938;-70
2021/06/21 00:35:55;;;;;;;15.33;14.57;;;20.40;99.90;;;;;;4975142;28;20459;-70
2021/06/21 00:38:21;;;;;;;14.83;14.13;;;20.40;99.90;;;;;;4975356;28;20458;-69
2021/06/21 00:40:48;;;;;;;15.37;14.40;;;20.40;99.90;;;;;;4975243;28;20452;-69
2021/06/21 00:43:15;;;;;;;15.13;14.30;;;20.30;99.90;;;;;;4975129;28;20463;-70
2021/06/21 00:45:43;;;;;;;14.73;13.93;;;20.30;99.90;;;;;;4975033;28;20467;-69
2021/06/21 00:48:12;;;;;;;15.57;14.57;;;20.30;99.90;;;;;;4975149;28;20451;-70
2021/06/21 00:50:39;;;;;;;15.73;14.40;;;20.30;99.90;;;;;;4975077;28;20511;-68
2021/06/21 00:53:06;;;;;;;15.63;14.60;;;20.30;99.90;;;;;;4974826;28;20486;-70
2021/06/21 00:55:33;;;;;;;16.23;15.40;;;20.30;99.90;;;;;;4974796;28;20447;-71
2021/06/21 00:57:59;;;;;;;16.23;15.23;;;20.30;99.90;;;;;;4975160;28;20569;-70
2021/06/21 01:00:28;;;;;;;18.40;17.20;;;20.30;99.90;;;;;;4975096;28;20447;-69
2021/06/21 01:02:58;;;;;;;17.27;16.00;;;20.30;99.90;;;;;;4975033;28;20476;-70
2021/06/21 01:05:27;;;;;;;17.30;16.10;;;20.30;99.90;;;;;;4974701;28;20448;-70
2021/06/21 01:07:54;;;;;;;16.13;15.13;;;20.30;99.90;;;;;;4974739;28;20448;-68
2021/06/21 01:10:23;;;;;;;17.60;16.50;;;20.30;99.90;;;;;;4974809;28;20448;-70
2021/06/21 01:13:17;;;;;;;19.63;18.13;;;20.30;99.90;;;;;;4974593;28;20475;-70
2021/06/21 01:15:51;;;;;;;17.90;16.60;;;20.30;99.90;;;;;;4973593;28;20453;-70
2021/06/21 01:18:25;;;;;;;18.30;17.20;;;20.30;99.90;;;;;;4974802;28;20443;-69
2021/06/21 01:21:13;;;;;;;18.00;16.90;;;20.30;99.90;;;;;;4974550;28;20451;-67
2021/06/21 01:24:12;;;;;;;19.13;17.73;;;20.30;99.90;;;;;;4974457;28;20502;-69
2021/06/21 01:26:43;;;;;;;18.90;17.60;;;20.40;99.90;;;;;;4974619;28;20443;-70
2021/06/21 01:29:26;;;;;;;18.23;17.00;;;20.30;99.90;;;;;;4974321;28;20794;-69
2021/06/21 01:31:57;;;;;;;20.83;19.23;;;20.40;99.90;;;;;;4974223;28;20479;-69
2021/06/21 01:34:29;;;;;;;21.47;19.60;;;20.40;99.90;;;;;;4974220;28;20458;-70
2021/06/21 01:36:58;;;;;;;21.00;19.40;;;20.40;99.90;;;;;;4974433;28;20448;-69
2021/06/21 01:39:27;;;;;;;23.97;22.07;;;20.30;99.90;;;;;;4974210;28;20992;-69
2021/06/21 01:42:02;;;;;;;25.03;23.03;;;20.20;99.90;;;;;;4974094;28;20443;-69
2021/06/21 01:44:33;;;;;;;23.20;21.37;;;20.10;99.90;;;;;;4974032;28;20967;-69
2021/06/21 01:47:01;;;;;;;24.50;22.60;;;20.00;99.90;;;;;;4974163;28;20495;-68
2021/06/21 01:49:35;;;;;;;25.67;23.57;;;20.00;99.90;;;;;;4973997;28;20825;-69
2021/06/21 01:52:04;;;;;;;26.53;24.30;;;19.90;99.90;;;;;;4973839;28;20489;-69
2021/06/21 01:54:33;;;;;;;26.70;24.50;;;19.90;99.90;;;;;;4973823;28;20451;-69
2021/06/21 01:57:03;;;;;;;27.50;25.23;;;19.80;99.90;;;;;;4973881;28;20443;-69
2021/06/21 01:59:30;;;;;;;27.63;25.33;;;19.70;99.90;;;;;;4974014;28;20455;-68
2021/06/21 02:01:59;;;;;;;28.17;25.50;;;19.70;99.90;;;;;;4973759;28;20829;-68
2021/06/21 02:04:30;;;;;;;26.53;24.13;;;19.70;99.90;;;;;;4973726;28;20812;-69
2021/06/21 02:07:00;;;;;;;25.00;22.50;;;19.70;99.90;;;;;;4973709;28;20455;-69
2021/06/21 02:09:28;;;;;;;24.80;22.50;;;19.70;99.90;;;;;;4973735;28;20452;-69
2021/06/21 02:11:57;;;;;;;19.97;18.40;;;19.60;99.90;;;;;;4973461;28;20480;-68
2021/06/21 02:14:27;;;;;;;24.33;22.20;;;19.50;99.90;;;;;;4973431;28;20444;-69
2021/06/21 02:16:55;;;;;;;25.77;23.33;;;19.50;99.90;;;;;;4973720;28;20459;-70
2021/06/21 02:19:26;;;;;;;28.77;26.03;;;19.50;99.90;;;;;;4973514;28;20463;-68
2021/06/21 02:21:54;;;;;;;30.50;27.43;;;19.50;99.90;;;;;;4973136;28;20446;-69
2021/06/21 02:24:22;;;;;;;28.70;26.40;;;19.50;99.90;;;;;;4973248;28;20452;-70
2021/06/21 02:26:50;;;;;;;26.63;24.43;;;19.50;99.90;;;;;;4973199;28;21061;-69
2021/06/21 02:29:20;;;;;;;27.33;25.10;;;19.50;99.90;;;;;;4973447;28;20450;-69
2021/06/21 02:31:47;;;;;;;27.90;25.50;;;19.50;99.90;;;;;;4973343;28;20476;-69
2021/06/21 02:34:14;;;;;;;26.33;24.17;;;19.50;99.90;;;;;;4973030;28;20448;-69
2021/06/21 02:36:41;;;;;;;26.43;24.33;;;19.50;99.90;;;;;;4973215;28;20443;-69
2021/06/21 02:39:12;;;;;;;27.40;25.00;;;19.60;99.90;;;;;;4973161;28;20447;-69
2021/06/21 02:41:39;;;;;;;27.93;25.43;;;19.60;99.90;;;;;;4973090;28;20944;-69
2021/06/21 02:44:06;;;;;;;27.90;25.27;;;19.60;99.90;;;;;;4972802;28;20467;-68
2021/06/21 02:46:33;;;;;;;29.60;27.10;;;19.60;99.90;;;;;;4973163;28;20454;-70
2021/06/21 02:49:00;;;;;;;27.10;24.60;;;19.70;99.90;;;;;;4973204;28;20447;-68
2021/06/21 02:51:34;;;;;;;27.60;25.07;;;19.70;99.90;;;;;;4972936;28;20483;-69
2021/06/21 02:54:06;;;;;;;26.47;24.37;;;19.70;99.90;;;;;;4972853;28;20464;-69
2021/06/21 02:56:39;;;;;;;26.60;24.20;;;19.70;99.90;;;;;;4972857;28;20455;-70
2021/06/21 02:59:08;;;;;;;24.80;22.70;;;19.70;99.90;;;;;;4972879;28;20448;-69
2021/06/21 03:01:38;;;;;;;24.50;22.60;;;19.70;99.90;;;;;;4972894;28;20440;-69
2021/06/21 03:04:09;;;;;;;26.20;24.00;;;19.70;99.90;;;;;;4972733;28;20474;-69
2021/06/21 03:06:37;;;;;;;24.40;22.40;;;19.70;99.90;;;;;;4973057;28;20454;-68
2021/06/21 03:09:05;;;;;;;24.30;22.37;;;19.70;99.90;;;;;;4972945;28;20448;-70
2021/06/21 03:11:34;;;;;;;25.23;23.20;;;19.70;99.90;;;;;;4972616;28;20932;-69
2021/06/21 03:14:02;;;;;;;24.77;22.87;;;19.80;99.90;;;;;;4972733;28;20468;-68
2021/06/21 03:16:31;;;;;;;24.43;22.50;;;19.80;99.90;;;;;;4972595;28;20448;-68
2021/06/21 03:18:58;;;;;;;25.57;23.47;;;19.70;99.90;;;;;;4972733;28;20455;-69
2021/06/21 03:21:25;;;;;;;25.67;23.47;;;19.70;99.90;;;;;;4972688;28;20440;-69
2021/06/21 03:23:53;;;;;;;25.30;23.30;;;19.70;99.90;;;;;;4972540;28;20483;-69
2021/06/21 03:26:25;;;;;;;25.53;23.00;;;19.80;99.90;;;;;;4972515;28;20455;-69
2021/06/21 03:28:53;;;;;;;23.00;21.30;;;19.70;99.90;;;;;;4972553;28;20495;-69
2021/06/21 03:31:22;;;;;;;24.77;22.80;;;19.70;99.90;;;;;;4972573;28;20483;-70
2021/06/21 03:33:49;;;;;;;23.73;21.83;;;19.70;99.90;;;;;;4972448;28;20463;-69
2021/06/21 03:36:16;;;;;;;23.17;21.37;;;19.70;99.90;;;;;;4972404;28;20451;-70
2021/06/21 03:38:43;;;;;;;23.17;21.37;;;19.80;99.90;;;;;;4975403;28;20452;-70
2021/06/21 03:41:11;;;;;;;23.80;21.77;;;19.80;99.90;;;;;;4976300;28;20455;-69
2021/06/21 03:43:38;;;;;;;21.90;19.87;;;19.80;99.90;;;;;;4976406;28;20471;-70
2021/06/21 03:46:09;;;;;;;21.23;19.43;;;19.80;99.90;;;;;;4976103;28;20458;-69
2021/06/21 03:48:37;;;;;;;22.40;20.70;;;19.90;99.90;;;;;;4976373;28;20560;-70
2021/06/21 03:51:04;;;;;;;19.70;18.00;;;19.90;99.90;;;;;;4976072;28;20451;-69
2021/06/21 03:53:31;;;;;;;19.17;17.77;;;19.90;99.90;;;;;;4976072;28;20490;-69
2021/06/21 03:55:58;;;;;;;18.33;16.90;;;19.90;99.90;;;;;;4975878;28;20455;-70
2021/06/21 03:58:24;;;;;;;17.07;15.97;;;19.90;99.90;;;;;;4975976;28;20448;-69
2021/06/21 04:00:51;;;;;;;19.57;18.17;;;19.90;99.90;;;;;;4976023;28;20448;-69
2021/06/21 04:03:19;;;;;;;19.40;17.83;;;19.90;99.90;;;;;;4976023;28;20464;-70
2021/06/21 04:05:46;;;;;;;20.13;18.70;;;20.00;99.90;;;;;;4975871;28;20447;-70
2021/06/21 04:08:16;;;;;;;20.63;19.03;;;20.00;99.90;;;;;;4975825;28;20455;-69
2021/06/21 04:10:43;;;;;;;20.77;19.17;;;20.00;99.90;;;;;;4975790;28;20793;-69
2021/06/21 04:13:11;;;;;;;21.80;20.10;;;20.00;99.90;;;;;;4975491;28;20483;-70
2021/06/21 04:15:38;;;;;;;23.73;21.83;;;20.10;99.90;;;;;;4975594;28;20454;-69
2021/06/21 04:18:07;;;;;;;23.50;21.80;;;20.20;99.90;;;;;;4975700;28;20451;-70
2021/06/21 04:20:36;;;;;;;20.73;19.33;;;20.20;99.90;;;;;;4975626;28;20455;-70
2021/06/21 04:23:04;;;;;;;21.53;20.00;;;20.20;99.90;;;;;;4975218;28;20997;-69
2021/06/21 04:25:31;;;;;;;18.03;16.73;;;20.20;99.90;;;;;;4975273;28;20455;-70
2021/06/21 04:27:58;;;;;;;19.07;17.77;;;20.20;99.90;;;;;;4975504;28;20447;-69
2021/06/21 04:30:26;;;;;;;17.20;16.20;;;20.30;99.90;;;;;;4975450;28;20451;-70
2021/06/21 04:32:54;;;;;;;16.60;15.50;;;20.20;99.90;;;;;;4975185;28;20487;-69
2021/06/21 04:35:23;;;;;;;20.07;18.27;;;20.20;99.90;;;;;;4975198;28;20452;-70
2021/06/21 04:37:52;;;;;;;18.27;16.83;;;20.30;99.90;;;;;;4975365;28;20444;-69
2021/06/21 04:40:20;;;;;;;22.70;21.00;;;20.40;99.90;;;;;;4975371;28;20443;-70
2021/06/21 04:42:47;;;;;;;20.20;18.80;;;20.40;99.90;;;;;;4975122;28;20969;-70
2021/06/21 04:45:14;;;;;;;26.30;21.90;;;20.50;99.90;;;;;;4975001;28;20444;-70
2021/06/21 04:47:41;;;;;;;20.03;18.53;;;20.50;99.90;;;;;;4975135;28;20448;-70
2021/06/21 04:50:12;;;;;;;23.20;21.20;;;20.50;99.90;;;;;;4973841;28;20444;-70
2021/06/21 04:52:40;;;;;;;22.70;21.10;;;20.40;99.90;;;;;;4975073;28;20487;-69
2021/06/21 04:55:10;;;;;;;23.33;21.53;;;20.40;99.90;;;;;;4974628;28;20800;-69
2021/06/21 04:57:37;;;;;;;22.47;20.60;;;20.40;99.90;;;;;;4975484;28;20819;-69
2021/06/21 05:00:07;;;;;;;23.67;21.77;;;20.40;99.90;;;;;;4974987;28;20474;-70
2021/06/21 05:02:34;;;;;;;23.00;21.30;;;20.40;99.90;;;;;;4974892;28;20483;-70
2021/06/21 05:05:00;;;;;;;23.20;21.57;;;20.40;99.90;;;;;;4974876;28;20451;-70
2021/06/21 05:07:27;;;;;;;23.27;21.67;;;20.30;99.90;;;;;;4974857;28;20448;-69
2021/06/21 05:09:54;;;;;;;22.67;21.00;;;20.20;99.90;;;;;;4974675;28;20451;-69
2021/06/21 05:12:22;;;;;;;26.17;24.10;;;20.30;99.90;;;;;;4974682;28;20487;-70
2021/06/21 05:14:48;;;;;;;23.00;21.40;;;20.30;99.90;;;;;;4974493;28;20933;-70
2021/06/21 05:17:15;;;;;;;25.77;23.63;;;20.10;99.90;;;;;;4974615;28;20448;-70
2021/06/21 05:19:43;;;;;;;25.30;23.40;;;20.00;99.90;;;;;;4974546;28;20815;-70
2021/06/21 05:22:10;;;;;;;25.40;23.37;;;19.90;99.90;;;;;;4974836;28;20562;-69
2021/06/21 05:24:37;;;;;;;25.10;23.10;;;19.90;99.90;;;;;;4974365;28;20444;-70
2021/06/21 05:27:04;;;;;;;27.50;25.60;;;19.80;99.90;;;;;;4974502;28;20460;-69
2021/06/21 05:29:33;;;;;;;23.70;21.80;;;19.70;99.90;;;;;;4974594;28;20463;-69
2021/06/21 05:32:00;;;;;;;25.07;23.07;;;19.70;99.90;;;;;;4974401;28;20480;-69
2021/06/21 05:34:27;;;;;;;27.10;25.17;;;19.50;99.90;;;;;;4974293;28;20455;-69
2021/06/21 05:36:54;;;;;;;26.73;24.83;;;19.40;99.90;;;;;;4974325;28;20448;-70
2021/06/21 05:39:21;;;;;;;27.07;25.17;;;19.50;99.90;;;;;;4974282;28;20452;-69
2021/06/21 05:41:48;;;;;;;27.50;25.40;;;19.40;99.90;;;;;;4974041;28;20854;-69
2021/06/21 05:44:15;;;;;;;28.27;26.07;;;19.40;99.90;;;;;;4974218;28;20448;-69
2021/06/21 05:46:43;;;;;;;28.80;26.60;;;19.40;99.90;;;;;;4974191;28;20451;-69
2021/06/21 05:49:09;;;;;;;28.40;26.40;;;19.40;99.90;;;;;;4974153;28;20451;-70
2021/06/21 05:51:36;;;;;;;28.57;26.57;;;19.30;99.90;;;;;;4974036;28;20455;-70
2021/06/21 05:54:03;;;;;;;28.00;26.17;;;19.30;99.90;;;;;;4973810;28;20503;-68
2021/06/21 05:56:30;;;;;;;30.13;27.93;;;19.20;99.90;;;;;;4973856;28;20467;-67
2021/06/21 05:58:56;;;;;;;31.77;29.27;;;19.20;99.90;;;;;;4973938;28;20458;-67
2021/06/21 06:01:23;;;;;;;31.80;29.17;;;19.10;99.90;;;;;;4973387;28;20459;-68
2021/06/21 06:03:51;;;;;;;32.43;29.93;;;19.20;99.90;;;;;;4973502;28;20472;-68
2021/06/21 06:06:18;;;;;;;32.23;29.57;;;19.20;99.90;;;;;;4973597;28;20545;-68
2021/06/21 06:08:45;;;;;;;32.47;30.07;;;19.10;99.90;;;;;;4973641;28;20451;-68
2021/06/21 06:11:11;;;;;;;33.03;30.60;;;19.20;99.90;;;;;;4973588;28;20443;-67
2021/06/21 06:13:38;;;;;;;35.70;33.13;;;19.20;99.90;;;;;;4973440;28;20483;-68
2021/06/21 06:16:06;;;;;;;35.80;33.27;;;19.10;99.90;;;;;;4973248;28;20455;-68
2021/06/21 06:18:33;;;;;;;34.47;31.63;;;19.20;99.90;;;;;;4973402;28;20853;-67
2021/06/21 06:21:01;;;;;;;34.57;32.03;;;19.20;99.90;;;;;;4973473;28;20448;-67
2021/06/21 06:23:28;;;;;;;35.40;32.80;;;19.30;99.90;;;;;;4971865;28;20475;-68
2021/06/21 06:25:55;;;;;;;33.33;30.60;;;19.30;99.90;;;;;;4973247;28;20439;-68
2021/06/21 06:28:21;;;;;;;34.33;31.83;;;19.30;99.90;;;;;;4973290;28;20949;-67
2021/06/21 06:30:48;;;;;;;36.07;33.47;;;19.30;99.90;;;;;;4973331;28;20454;-67
2021/06/21 06:33:15;;;;;;;37.17;34.47;;;19.30;99.90;;;;;;4973131;28;20487;-70
2021/06/21 06:35:41;;;;;;;34.10;31.50;;;19.20;99.90;;;;;;4973040;28;20448;-68
2021/06/21 06:38:09;;;;;;;37.10;34.30;;;19.10;99.90;;;;;;4973189;28;20455;-68
2021/06/21 06:40:36;;;;;;;39.13;36.00;;;19.20;99.90;;;;;;4973210;28;20450;-68
2021/06/21 06:43:03;;;;;;;37.80;35.00;;;19.20;99.90;;;;;;4973103;28;20459;-67
2021/06/21 06:45:29;;;;;;;37.43;34.60;;;19.40;99.90;;;;;;4972986;28;20479;-68
2021/06/21 06:47:56;;;;;;;38.27;35.43;;;19.40;99.90;;;;;;4973038;28;20448;-68
2021/06/21 06:50:23;;;;;;;40.30;37.03;;;19.30;99.90;;;;;;4972919;28;20884;-67
2021/06/21 06:52:50;;;;;;;39.07;35.93;;;19.30;99.90;;;;;;4972819;28;20494;-69
2021/06/21 06:58:02;;;;;;;37.80;34.90;;;19.00;99.90;;;;;;4972980;28;20426;-68
2021/06/21 07:00:29;;;;;;;40.30;36.90;;;18.90;99.90;;;;;;4972974;28;20815;-68
2021/06/21 07:02:56;;;;;;;42.23;37.23;;;18.70;99.90;;;;;;4972808;28;20891;-67
2021/06/21 07:05:22;;;;;;;40.93;37.33;;;18.70;99.90;;;;;;4972644;28;20448;-68
2021/06/21 07:07:49;;;;;;;40.43;36.93;;;18.70;99.90;;;;;;4972798;28;20444;-68
2021/06/21 07:10:17;;;;;;;39.33;35.93;;;18.60;99.90;;;;;;4972779;28;20448;-67
2021/06/21 07:12:44;;;;;;;39.20;35.30;;;18.60;99.90;;;;;;4971701;28;20491;-68
2021/06/21 07:15:12;;;;;;;46.03;41.73;;;18.50;99.90;;;;;;4972610;28;20454;-68
2021/06/21 07:17:39;;;;;;;43.83;39.77;;;18.50;99.90;;;;;;4972707;28;20452;-69
2021/06/21 07:20:06;;;;;;;44.30;40.30;;;18.50;99.90;;;;;;4972608;28;20455;-67
2021/06/21 07:22:33;;;;;;;51.53;46.17;;;18.40;99.90;;;;;;4972358;28;20556;-68
2021/06/21 07:25:00;;;;;;;53.17;47.30;;;18.50;99.90;;;;;;4972459;28;20451;-68
2021/06/21 07:27:28;;;;;;;52.97;47.23;;;18.40;99.90;;;;;;4972653;28;20454;-67
2021/06/21 07:29:55;;;;;;;56.67;49.10;;;18.40;99.90;;;;;;4972616;28;20448;-67
2021/06/21 07:32:21;;;;;;;54.30;47.33;;;18.50;99.90;;;;;;4972476;28;20468;-68
2021/06/21 07:34:48;;;;;;;47.03;41.67;;;18.60;99.90;;;;;;4972250;28;20910;-68
2021/06/21 07:37:15;;;;;;;50.37;44.60;;;18.90;99.90;;;;;;4972471;28;20948;-68
2021/06/21 07:39:41;;;;;;;48.67;42.33;;;19.10;99.90;;;;;;4972655;28;20458;-69
2021/06/21 07:42:09;;;;;;;46.83;42.03;;;19.20;99.90;;;;;;4972383;28;20468;-67
2021/06/21 07:44:37;;;;;;;44.57;40.13;;;19.40;99.90;;;;;;4972364;28;20444;-67
2021/06/21 07:47:04;;;;;;;43.90;39.43;;;19.50;99.90;;;;;;4972442;28;20451;-68
2021/06/21 07:49:30;;;;;;;45.07;41.07;;;19.90;99.90;;;;;;4972266;28;20450;-68
2021/06/21 07:51:57;;;;;;;41.33;37.63;;;20.20;99.90;;;;;;4972227;28;20455;-68
2021/06/21 07:54:24;;;;;;;43.73;39.83;;;20.30;99.90;;;;;;4972282;28;20491;-72
2021/06/21 07:56:51;;;;;;;44.23;40.20;;;20.40;99.90;;;;;;4972245;28;20463;-68
2021/06/21 07:59:17;;;;;;;42.73;38.83;;;20.30;99.90;;;;;;4972344;28;20451;-67
2021/06/21 08:01:45;;;;;;;43.63;39.53;;;19.80;99.90;;;;;;4972401;28;21204;-68
2021/06/21 08:04:12;;;;;;;41.77;37.97;;;19.90;99.90;;;;;;4972323;28;20954;-67
2021/06/21 08:06:39;;;;;;;40.27;36.97;;;20.40;99.90;;;;;;4972071;28;20444;-68
2021/06/21 08:09:06;;;;;;;43.00;39.00;;;20.50;99.90;;;;;;4972313;28;20952;-67
2021/06/21 08:11:33;;;;;;;39.30;35.90;;;20.50;99.90;;;;;;4972282;28;20550;-69
2021/06/21 08:13:59;;;;;;;37.93;34.40;;;20.50;99.90;;;;;;4972010;28;20483;-68
2021/06/21 08:16:28;;;;;;;40.20;36.73;;;20.50;99.90;;;;;;4971960;28;20455;-68
2021/06/21 08:18:57;;;;;;;38.03;34.30;;;20.30;99.90;;;;;;4972073;28;20451;-68
2021/06/21 08:21:24;;;;;;;37.23;33.90;;;20.20;99.90;;;;;;4971952;28;20486;-68
2021/06/21 08:23:50;;;;;;;37.37;33.10;;;20.00;99.90;;;;;;4973100;28;20475;-67
2021/06/21 08:26:17;;;;;;;37.70;34.20;;;19.90;99.90;;;;;;4975450;28;20526;-67
2021/06/21 08:28:44;;;;;;;37.73;34.80;;;19.80;99.90;;;;;;4975447;28;20443;-68
2021/06/21 08:31:10;;;;;;;34.43;31.63;;;19.60;99.90;;;;;;4975432;28;20455;-68
2021/06/21 08:33:37;;;;;;;30.80;28.40;;;19.60;99.90;;;;;;4975240;28;20487;-67
2021/06/21 08:36:06;;;;;;;32.20;29.40;;;19.40;99.90;;;;;;4975176;28;20451;-68
2021/06/21 08:38:34;;;;;;;29.73;27.40;;;19.20;99.90;;;;;;4975289;28;20444;-68
2021/06/21 08:41:04;;;;;;;26.60;24.43;;;19.00;99.90;;;;;;4975308;28;20443;-68
2021/06/21 08:43:32;;;;;;;27.83;25.70;;;19.00;99.90;;;;;;4975189;28;20468;-68
2021/06/21 08:45:58;;;;;;;29.70;27.17;;;19.00;99.90;;;;;;4975010;28;20488;-68
2021/06/21 08:48:29;;;;;;;29.40;26.70;;;19.10;99.90;;;;;;4975039;28;20452;-68
2021/06/21 08:50:56;;;;;;;29.73;27.47;;;19.10;99.90;;;;;;4975096;28;20459;-67
2021/06/21 08:53:24;;;;;;;29.40;27.10;;;19.00;99.90;;;;;;4974893;28;20611;-67
2021/06/21 08:55:51;;;;;;;22.80;20.87;;;18.80;99.90;;;;;;4974675;28;20532;-68
2021/06/21 08:58:17;;;;;;;23.33;22.03;;;18.90;99.90;;;;;;4975198;28;20448;-68
2021/06/21 09:00:44;;;;;;;23.50;21.80;;;18.90;99.90;;;;;;4974936;28;20503;-68
2021/06/21 09:03:11;;;;;;;20.93;19.73;;;19.00;99.90;;;;;;4974758;28;20463;-70
2021/06/21 09:05:38;;;;;;;19.53;18.33;;;19.20;99.90;;;;;;4974672;28;20448;-67
2021/06/21 09:08:07;;;;;;;19.13;18.23;;;19.10;99.90;;;;;;4974809;28;20467;-67
2021/06/21 09:10:37;;;;;;;19.10;18.20;;;19.10;99.90;;;;;;4974687;28;20451;-68
2021/06/21 09:13:07;;;;;;;19.50;18.40;;;19.10;99.90;;;;;;4974630;28;20491;-69
2021/06/21 09:15:36;;;;;;;19.13;17.93;;;19.10;99.90;;;;;;4974582;28;20455;-68
2021/06/21 09:18:26;;;;;;;17.60;16.80;;;19.10;99.90;;;;;;4974534;28;20451;-68
2021/06/21 09:21:18;;;;;;;18.47;17.57;;;19.00;99.90;;;;;;4974613;28;20934;-67
2021/06/21 09:23:44;;;;;;;17.90;16.77;;;19.00;99.90;;;;;;4974458;28;20494;-68
2021/06/21 09:26:20;;;;;;;17.90;16.90;;;19.10;99.90;;;;;;4974269;28;20941;-67
2021/06/21 09:28:47;;;;;;;17.30;16.40;;;19.20;99.90;;;;;;4974360;28;20447;-67
2021/06/21 09:31:15;;;;;;;15.57;14.87;;;19.10;99.90;;;;;;4974288;28;20451;-69
2021/06/21 09:33:42;;;;;;;17.00;16.10;;;18.80;99.90;;;;;;4974144;28;20483;-67
2021/06/21 09:36:09;;;;;;;16.73;15.93;;;18.50;99.90;;;;;;4973241;28;20452;-67
2021/06/21 09:38:36;;;;;;;17.00;16.10;;;18.60;99.90;;;;;;4974273;28;20952;-67
2021/06/21 09:41:03;;;;;;;15.43;14.73;;;18.70;99.90;;;;;;4974226;28;20954;-67
2021/06/21 09:43:33;;;;;;;14.40;13.87;;;18.80;99.90;;;;;;4974042;28;20471;-67
2021/06/21 09:46:12;;;;;;;13.70;13.20;;;18.70;99.90;;;;;;4973987;28;20885;-68
2021/06/21 09:48:40;;;;;;;16.20;15.53;;;18.60;99.90;;;;;;4974270;28;20547;-67
2021/06/21 09:51:28;;;;;;;16.13;15.37;;;18.90;99.90;;;;;;4974141;28;20463;-68
2021/06/21 09:53:58;;;;;;;16.30;15.70;;;19.00;99.90;;;;;;4973854;28;21015;-68
2021/06/21 09:56:37;;;;;;;15.13;14.43;;;19.10;99.90;;;;;;4973883;28;20474;-68
2021/06/21 09:59:19;;;;;;;14.00;13.60;;;19.30;99.90;;;;;;4973924;28;20451;-68
2021/06/21 10:01:45;;;;;;;13.77;13.37;;;19.20;99.90;;;;;;4973708;28;20455;-69
2021/06/21 10:04:23;;;;;;;14.27;13.77;;;18.90;99.90;;;;;;4973863;28;20945;-67
2021/06/21 10:06:50;;;;;;;14.40;13.80;;;18.80;99.90;;;;;;4973552;28;20977;-69
2021/06/21 10:09:16;;;;;;;13.93;13.43;;;18.80;99.90;;;;;;4973643;28;20448;-68
2021/06/21 10:11:45;;;;;;;13.40;13.00;;;19.10;99.90;;;;;;4973685;28;20959;-67
2021/06/21 10:14:13;;;;;;;13.60;13.20;;;19.40;99.90;;;;;;4973373;28;20491;-67
2021/06/21 10:16:43;;;;;;;13.90;13.50;;;19.90;99.90;;;;;;4973219;28;20495;-68
2021/06/21 10:19:10;;;;;;;14.27;13.80;;;20.10;99.90;;;;;;4973531;28;20443;-67
2021/06/21 10:21:39;;;;;;;14.20;13.80;;;20.30;99.90;;;;;;4973402;28;20459;-67
2021/06/21 10:24:07;;;;;;;14.03;13.63;;;20.50;99.90;;;;;;4973311;28;20519;-67
2021/06/21 10:26:34;;;;;;;14.93;14.53;;;20.70;99.90;;;;;;4973202;28;20455;-67
2021/06/21 10:29:01;;;;;;;14.90;14.40;;;20.90;99.90;;;;;;4973403;28;20452;-68
2021/06/21 10:31:30;;;;;;;14.43;14.03;;;20.70;99.90;;;;;;4973008;28;20447;-68
2021/06/21 10:34:00;;;;;;;14.90;14.40;;;20.60;99.90;;;;;;4973070;28;20483;-69
2021/06/21 10:36:41;;;;;;;14.50;14.10;;;19.90;99.90;;;;;;4972997;28;20459;-68
2021/06/21 10:39:10;;;;;;;15.50;14.40;;;20.00;99.90;;;;;;4973610;28;20813;-67
2021/06/21 10:41:36;;;;;;;13.97;13.57;;;19.70;99.90;;;;;;4973106;28;20444;-67
2021/06/21 10:44:03;;;;;;;14.23;13.50;;;19.70;99.90;;;;;;4973032;28;20464;-68
2021/06/21 10:46:31;;;;;;;14.40;13.83;;;19.30;99.90;;;;;;4972728;28;20455;-68
2021/06/21 10:49:43;;;;;;;14.57;14.07;;;18.70;99.90;;;;;;4973049;28;20459;-67
2021/06/21 10:52:32;;;;;;;13.33;12.93;;;18.50;99.90;;;;;;4972851;28;20470;-68
2021/06/21 10:55:47;;;;;;;13.10;12.70;;;18.30;99.90;;;;;;4972790;28;20491;-67
2021/06/21 10:58:40;;;;;;;13.60;13.00;;;18.30;99.90;;;;;;4972917;28;20468;-67
2021/06/21 11:01:21;;;;;;;13.77;13.27;;;18.50;99.90;;;;;;4972826;28;20880;-68
2021/06/21 11:03:48;;;;;;;13.70;13.30;;;18.50;99.90;;;;;;4972641;28;20464;-68
2021/06/21 11:06:43;;;;;;;13.37;12.97;;;18.60;99.90;;;;;;4972557;28;20447;-68
2021/06/21 11:09:12;;;;;;;13.97;13.47;;;18.50;99.90;;;;;;4972537;28;20451;-69
2021/06/21 11:11:52;;;;;;;13.90;13.40;;;18.50;99.90;;;;;;4973363;28;20439;-68
2021/06/21 11:14:27;;;;;;;13.37;12.97;;;18.50;99.90;;;;;;4972766;28;20489;-68
2021/06/21 11:17:19;;;;;;;13.93;13.43;;;18.80;99.90;;;;;;4972507;28;20439;-67
2021/06/21 11:19:45;;;;;;;14.13;13.73;;;19.60;99.90;;;;;;4972650;28;20473;-68
2021/06/21 11:22:13;;;;;;;14.23;13.83;;;20.20;99.90;;;;;;4972852;28;20476;-70
2021/06/21 11:25:02;;;;;;;14.60;14.20;;;20.40;99.90;;;;;;4972804;28;20435;-69
2021/06/21 11:27:43;;;;;;;14.10;13.60;;;19.90;99.90;;;;;;4972718;28;20471;-69
2021/06/21 11:30:41;;;;;;;15.03;14.63;;;20.10;99.90;;;;;;4972635;28;20452;-69
2021/06/21 11:33:11;;;;;;;15.40;14.70;;;21.40;99.90;;;;;;4972337;28;20965;-69
2021/06/21 11:36:03;;;;;;;14.70;14.30;;;21.70;99.90;;;;;;4972361;28;20526;-69
2021/06/21 11:38:33;;;;;;;15.40;14.90;;;21.60;99.90;;;;;;4972796;28;20452;-69
2021/06/21 11:41:23;;;;;;;15.13;14.73;;;21.20;99.90;;;;;;4972993;28;20444;-69
2021/06/21 11:43:55;;;;;;;14.70;14.20;;;20.40;99.90;;;;;;4972403;28;20463;-69
2021/06/21 11:46:42;;;;;;;14.87;14.37;;;20.10;99.90;;;;;;4972464;28;20458;-69
2021/06/21 11:49:11;;;;;;;15.07;14.47;;;19.90;99.90;;;;;;4972491;28;20447;-69
2021/06/21 11:51:38;;;;;;;14.90;14.40;;;19.50;99.90;;;;;;4972326;28;20528;-69
2021/06/21 11:54:08;;;;;;;15.63;15.13;;;19.40;99.90;;;;;;4972504;28;20491;-69
2021/06/21 11:56:36;;;;;;;15.37;14.87;;;19.10;99.90;;;;;;4972228;28;20487;-69
2021/06/21 11:59:03;;;;;;;15.40;14.80;;;18.90;99.90;;;;;;4974096;28;20849;-68
2021/06/21 12:01:30;;;;;;;14.63;14.13;;;18.80;99.90;;;;;;4976028;28;20929;-70
2021/06/21 12:03:58;;;;;;;14.07;13.67;;;18.60;99.90;;;;;;4975916;28;20482;-68
2021/06/21 12:06:29;;;;;;;13.90;13.50;;;18.50;99.90;;;;;;4975847;28;20454;-69
2021/06/21 12:08:56;;;;;;;14.23;13.80;;;18.50;99.90;;;;;;4976101;28;20451;-69
2021/06/21 12:11:25;;;;;;;14.20;13.70;;;18.50;99.90;;;;;;4976039;28;20444;-69
2021/06/21 12:13:59;;;;;;;14.40;13.90;;;18.30;99.90;;;;;;4975727;28;20467;-69
2021/06/21 12:16:27;;;;;;;14.43;14.03;;;18.20;99.90;;;;;;4975723;28;20453;-70
2021/06/21 12:18:56;;;;;;;14.30;13.90;;;18.00;99.90;;;;;;4975802;28;20455;-69
2021/06/21 12:21:29;;;;;;;14.40;13.90;;;18.00;99.90;;;;;;4975821;28;20451;-69
2021/06/21 12:23:56;;;;;;;13.70;13.30;;;18.20;99.90;;;;;;4975567;28;20475;-68
2021/06/21 12:26:23;;;;;;;14.30;13.80;;;18.30;99.90;;;;;;4975659;28;20443;-69
2021/06/21 12:28:49;;;;;;;13.70;13.30;;;18.20;99.90;;;;;;4975637;28;20451;-68
2021/06/21 12:31:18;;;;;;;14.20;13.80;;;18.30;99.90;;;;;;4975677;28;20925;-68
2021/06/21 12:33:45;;;;;;;13.87;13.47;;;18.40;99.90;;;;;;4975457;28;20981;-68
2021/06/21 12:36:17;;;;;;;14.60;14.00;;;18.30;99.90;;;;;;4975315;28;20443;-68
2021/06/21 12:38:54;;;;;;;14.53;14.03;;;18.30;99.90;;;;;;4975542;28;20479;-68
2021/06/21 12:41:23;;;;;;;14.10;13.70;;;18.10;99.90;;;;;;4975544;28;20466;-68
2021/06/21 12:43:54;;;;;;;13.97;13.57;;;18.20;99.90;;;;;;4975159;28;20474;-69